Time;durP1;ratioP1;P1;durP2;ratioP2;P2;SDS_P1;SDS_P2;PMS_P1;PMS_P2;Temp;Humidity;BMP_temperature;BMP_pressure;BME280_temperature;BME280_humidity;BME280_pressure;Samples;Min_cycle;Max_cycle;Signal;HPM_P1;HPM_P2
2022/07/19 00:08:25;;;;;;;;;;;;;;;;;;;;;
2022/07/19 00:17:12;;;;;;;;;;;;;;;;;;;;;
2022/07/19 00:33:20;;;;;;;16.40;5.00;;;;;;;15.98;48.28;99576.35;105764;1279;22964;-84
2022/07/19 00:35:52;;;;;;;17.10;4.60;;;;;;;16.06;48.40;99580.66;105676;1280;22640;-84
2022/07/19 00:38:39;;;;;;;;;;;;;;;;;;;;;
2022/07/19 00:42:39;;;;;;;15.00;4.30;;;;;;;16.00;48.59;99580.29;105712;1283;24390;-88
2022/07/19 00:46:20;;;;;;;14.90;4.00;;;;;;;15.85;48.63;99587.95;106214;1271;25264;-84
2022/07/19 00:50:05;;;;;;;13.00;4.00;;;;;;;15.71;48.72;99586.83;105987;1277;24223;-85
2022/07/19 00:52:33;;;;;;;12.20;3.60;;;;;;;15.67;49.03;99578.45;105627;1276;22778;-85
2022/07/19 00:55:12;;;;;;;12.30;3.40;;;;;;;15.66;48.93;99569.70;105746;1278;22664;-83
2022/07/19 00:58:08;;;;;;;12.60;3.90;;;;;;;15.68;49.05;99561.95;105817;1277;24541;-85
2022/07/19 01:00:51;;;;;;;13.60;4.10;;;;;;;15.70;48.86;99560.06;105818;1278;22556;-88
2022/07/19 01:07:27;;;;;;;11.80;2.90;;;;;;;15.85;49.06;99559.30;105495;1284;25405;-83
2022/07/19 01:10:11;;;;;;;9.30;2.10;;;;;;;15.91;48.88;99562.87;105193;1284;22580;-84
2022/07/19 01:17:29;;;;;;;12.20;2.20;;;;;;;15.99;49.07;99564.40;105144;1287;23318;-87
2022/07/19 01:20:04;;;;;;;9.00;2.20;;;;;;;15.96;49.09;99563.92;104910;1288;22766;-85
2022/07/19 01:23:31;;;;;;;10.30;2.90;;;;;;;15.98;49.29;99565.03;104544;1291;23158;-81
2022/07/19 01:26:14;;;;;;;;;;;;;;;;;;;;;
2022/07/19 01:31:11;;;;;;;;;;;;;;;;;;;;;
2022/07/19 01:34:24;;;;;;;11.30;3.40;;;;;;;15.90;49.68;99566.56;104537;1277;22571;-85
2022/07/19 01:41:43;;;;;;;10.20;3.00;;;;;;;15.74;49.84;99559.36;105868;1280;24250;-85
2022/07/19 01:44:28;;;;;;;10.20;2.70;;;;;;;15.73;49.83;99560.38;105883;1280;22673;-88
2022/07/19 02:00:27;;;;;;;8.50;2.40;;;;;;;15.98;50.10;99549.73;103462;1306;22822;-85
2022/07/19 02:03:16;;;;;;;10.30;2.50;;;;;;;16.00;50.02;99554.09;105756;1276;24331;-87
2022/07/19 02:06:01;;;;;;;10.50;2.60;;;;;;;15.99;50.07;99550.88;106059;1273;22753;-85
2022/07/19 02:08:43;;;;;;;10.20;2.40;;;;;;;15.97;50.20;99549.81;106132;1273;22577;-85
2022/07/19 02:15:52;;;;;;;8.60;2.50;;;;;;;15.91;50.18;99548.15;105507;1281;25369;-82
2022/07/19 02:30:13;;;;;;;5.90;1.60;;;;;;;15.89;50.40;99535.36;104235;1297;22631;-86
2022/07/19 02:37:00;;;;;;;6.20;1.50;;;;;;;16.05;50.40;99533.67;104261;1294;24293;-87
2022/07/19 02:40:05;;;;;;;7.20;1.90;;;;;;;16.08;50.25;99535.74;104102;1294;24309;-88
2022/07/19 02:42:56;;;;;;;7.90;1.90;;;;;;;16.12;50.39;99541.27;103992;1298;22601;-85
2022/07/19 02:45:54;;;;;;;6.80;1.80;;;;;;;16.16;50.50;99543.52;104128;1297;22597;-84
2022/07/19 02:49:06;;;;;;;6.20;1.90;;;;;;;16.18;50.67;99546.87;104593;1275;22798;-84
2022/07/19 02:52:12;;;;;;;7.90;1.90;;;;;;;16.20;50.63;99548.45;106345;1273;25254;-86
2022/07/19 02:55:31;;;;;;;7.40;1.90;;;;;;;16.14;50.83;99554.45;105177;1284;26642;-84
2022/07/19 02:58:35;;;;;;;9.10;2.20;;;;;;;16.05;51.03;99555.61;104815;1287;24721;-84
2022/07/19 03:01:40;;;;;;;6.30;1.80;;;;;;;15.99;50.92;99554.88;105132;1287;25520;-88
2022/07/19 03:08:21;;;;;;;6.80;1.70;;;;;;;15.91;51.07;99553.74;104410;1291;22591;-83
2022/07/19 03:11:47;;;;;;;;;;;;;;;;;;;;;
2022/07/19 03:15:50;;;;;;;6.10;1.40;;;;;;;15.87;51.02;99547.38;106315;1274;23058;-83
2022/07/19 03:19:13;;;;;;;7.40;1.40;;;;;;;16.01;51.08;99545.91;105788;1274;22894;-84
2022/07/19 03:27:21;;;;;;;5.20;1.50;;;;;;;16.06;50.96;99546.33;105701;1282;25568;-84
2022/07/19 03:29:58;;;;;;;;;;;;;;;;;;;;;
2022/07/19 03:33:16;;;;;;;6.40;1.60;;;;;;;16.03;51.08;99549.33;105727;1282;25400;-83
2022/07/19 03:36:15;;;;;;;5.90;1.50;;;;;;;16.10;51.03;99548.30;105662;1282;24302;-86
2022/07/19 03:42:32;;;;;;;6.10;1.40;;;;;;;16.39;50.98;99553.35;105187;1287;22770;-85
2022/07/19 03:46:33;;;;;;;;;;;;;;;;;;;;;
2022/07/19 03:49:15;;;;;;;8.10;1.50;;;;;;;16.79;50.99;99547.48;106276;1274;23049;-89
2022/07/19 03:52:28;;;;;;;9.70;1.40;;;;;;;16.91;50.90;99544.35;105793;1274;24364;-84
2022/07/19 03:59:29;;;;;;;;;;;;;;;;;;;;;
2022/07/19 04:03:04;;;;;;;7.40;1.60;;;;;;;17.10;50.91;99556.13;105619;1284;25371;-83
2022/07/19 04:05:59;;;;;;;8.50;2.10;;;;;;;17.05;51.01;99560.96;105508;1273;25335;-84
2022/07/19 04:08:26;;;;;;;9.20;1.90;;;;;;;16.95;51.28;99558.70;106036;1276;26474;-84
2022/07/19 04:11:00;;;;;;;10.90;2.00;;;;;;;16.88;51.35;99556.29;105868;1275;22609;-85
2022/07/19 04:13:29;;;;;;;8.80;1.70;;;;;;;16.80;51.21;99554.00;105920;1274;25465;-83
2022/07/19 04:16:17;;;;;;;;;;;;;;;;;;;;;
2022/07/19 04:19:20;;;;;;;6.30;1.40;;;;;;;16.74;51.26;99552.58;106214;1274;24341;-87
2022/07/19 04:21:55;;;;;;;10.50;1.80;;;;;;;16.78;51.18;99559.79;106174;1273;22553;-84
2022/07/19 04:24:24;;;;;;;9.70;1.80;;;;;;;16.88;51.30;99562.58;106168;1273;24222;-86
2022/07/19 04:27:13;;;;;;;13.60;1.70;;;;;;;17.09;51.31;99561.08;106293;1274;22587;-86
2022/07/19 04:29:42;;;;;;;28.50;2.70;;;;;;;17.25;51.24;99558.48;105889;1274;24317;-83
2022/07/19 04:32:15;;;;;;;19.10;2.30;;;;;;;17.43;51.33;99558.15;106193;1274;25350;-85
2022/07/19 04:34:49;;;;;;;22.80;2.80;;;;;;;17.59;51.35;99559.83;106193;1274;24206;-85
2022/07/19 04:37:15;;;;;;;19.40;2.20;;;;;;;17.76;51.52;99553.64;106219;1273;22786;-84
2022/07/19 04:40:09;;;;;;;17.00;2.70;;;;;;;17.90;51.34;99554.14;106154;1273;22680;-83
2022/07/19 04:42:47;;;;;;;16.10;2.20;;;;;;;18.04;51.28;99555.30;106090;1273;22808;-84
2022/07/19 04:45:38;;;;;;;12.70;2.00;;;;;;;18.20;51.24;99555.06;106278;1273;22659;-84
2022/07/19 04:48:13;;;;;;;14.50;2.40;;;;;;;18.37;51.11;99553.55;106184;1274;24282;-84
2022/07/19 04:50:48;;;;;;;11.10;2.00;;;;;;;18.53;51.06;99552.00;106438;1272;25995;-84
2022/07/19 04:54:23;;;;;;;12.10;1.80;;;;;;;18.77;51.10;99554.40;105973;1277;22540;-87
2022/07/19 04:57:13;;;;;;;12.00;2.10;;;;;;;18.95;50.97;99554.07;105615;1276;26582;-83
2022/07/19 04:59:45;;;;;;;12.10;2.10;;;;;;;19.14;51.01;99552.65;105824;1277;22736;-86
2022/07/19 05:02:14;;;;;;;13.10;1.70;;;;;;;19.32;50.69;99554.33;105718;1277;23946;-84
2022/07/19 05:04:43;;;;;;;7.30;1.50;;;;;;;19.49;50.70;99554.92;105727;1276;25594;-84
2022/07/19 05:07:11;;;;;;;8.40;1.80;;;;;;;19.65;50.48;99555.98;105773;1277;22577;-84
2022/07/19 05:09:45;;;;;;;8.00;1.50;;;;;;;19.84;50.49;99553.36;105615;1280;25458;-86
2022/07/19 05:12:17;;;;;;;8.50;1.50;;;;;;;20.05;50.30;99551.77;105752;1277;25306;-86
2022/07/19 05:14:43;;;;;;;8.30;1.60;;;;;;;20.23;50.29;99550.00;105728;1277;24533;-85
2022/07/19 05:17:15;;;;;;;10.20;1.70;;;;;;;20.42;49.93;99550.77;105848;1277;22566;-86
2022/07/19 05:19:52;;;;;;;5.80;1.50;;;;;;;20.58;49.96;99542.38;105731;1277;22611;-85
2022/07/19 05:23:22;;;;;;;8.40;1.50;;;;;;;20.70;49.90;99543.93;105593;1277;24270;-86
2022/07/19 05:26:11;;;;;;;6.50;1.60;;;;;;;20.86;49.86;99546.34;105552;1282;22632;-89
2022/07/19 05:28:37;;;;;;;9.40;1.60;;;;;;;20.99;49.83;99546.27;105307;1281;23385;-87
2022/07/19 05:31:09;;;;;;;6.40;1.30;;;;;;;21.16;49.87;99537.05;105196;1283;24317;-84
2022/07/19 05:33:41;;;;;;;13.80;1.80;;;;;;;21.34;49.67;99536.77;105677;1281;24720;-86
2022/07/19 05:36:31;;;;;;;10.50;1.70;;;;;;;21.47;49.68;99536.89;105684;1282;22611;-86
2022/07/19 05:39:06;;;;;;;8.90;1.60;;;;;;;21.63;49.63;99534.95;105618;1282;22691;-84
2022/07/19 05:41:33;;;;;;;9.80;1.90;;;;;;;21.78;49.69;99532.77;105667;1282;22651;-85
2022/07/19 05:44:05;;;;;;;12.10;2.00;;;;;;;21.93;49.68;99533.08;105641;1282;22662;-88
2022/07/19 05:46:37;;;;;;;13.20;2.50;;;;;;;22.06;49.78;99526.23;105693;1282;22619;-88
2022/07/19 05:49:03;;;;;;;14.20;2.80;;;;;;;22.18;49.77;99527.80;105695;1281;25456;-85
2022/07/19 05:51:32;;;;;;;12.20;2.00;;;;;;;22.31;49.82;99529.20;105469;1282;25610;-84
2022/07/19 05:54:03;;;;;;;15.50;2.50;;;;;;;22.44;49.81;99531.73;105587;1282;22930;-85
2022/07/19 05:56:33;;;;;;;13.40;2.50;;;;;;;22.59;49.99;99529.27;105853;1273;22568;-87
2022/07/19 05:59:35;;;;;;;12.90;2.50;;;;;;;22.75;49.79;99532.48;105926;1277;22569;-84
2022/07/19 06:02:09;;;;;;;13.20;2.00;;;;;;;22.88;49.85;99528.40;105824;1278;22655;-86
2022/07/19 06:09:01;;;;;;;27.20;3.00;;;;;;;23.28;49.75;99529.95;105425;1285;22917;-87
2022/07/19 06:11:32;;;;;;;16.80;2.20;;;;;;;23.43;49.76;99531.76;105438;1282;22672;-86
2022/07/19 06:14:06;;;;;;;11.50;1.90;;;;;;;23.56;49.87;99531.02;105202;1283;24121;-85
2022/07/19 06:16:43;;;;;;;15.00;1.80;;;;;;;23.69;49.73;99531.45;105347;1283;24702;-88
2022/07/19 06:19:18;;;;;;;10.00;2.30;;;;;;;23.82;49.51;99528.77;105309;1284;22552;-88
2022/07/19 06:21:51;;;;;;;10.60;1.50;;;;;;;24.01;49.40;99529.59;105309;1285;25377;-85
2022/07/19 06:24:20;;;;;;;7.70;1.50;;;;;;;24.19;49.42;99528.11;105162;1284;24291;-87
2022/07/19 06:27:00;;;;;;;9.20;1.40;;;;;;;24.37;49.46;99526.98;105170;1284;22656;-85
2022/07/19 06:29:32;;;;;;;9.40;1.80;;;;;;;24.56;49.18;99526.16;105425;1282;26682;-86
2022/07/19 06:32:07;;;;;;;13.40;1.80;;;;;;;24.75;49.35;99521.42;105725;1281;22546;-86
2022/07/19 06:34:49;;;;;;;11.50;1.80;;;;;;;24.98;49.07;99523.00;105556;1281;26742;-86
2022/07/19 06:37:25;;;;;;;6.50;1.40;;;;;;;25.16;48.65;99518.19;105762;1281;24789;-86
2022/07/19 06:39:55;;;;;;;5.80;1.10;;;;;;;25.34;48.80;99510.56;105614;1281;23921;-86
2022/07/19 06:42:24;;;;;;;7.90;1.70;;;;;;;25.52;48.63;99508.39;105832;1281;22553;-87
2022/07/19 06:45:04;;;;;;;8.40;1.70;;;;;;;25.72;48.61;99504.66;105930;1274;25563;-86
2022/07/19 06:47:39;;;;;;;6.60;1.60;;;;;;;25.90;48.37;99503.23;106113;1274;22486;-85
2022/07/19 06:50:11;;;;;;;8.80;1.70;;;;;;;26.05;48.33;99506.48;106094;1274;22762;-85
2022/07/19 06:52:51;;;;;;;8.70;1.90;;;;;;;26.20;48.11;99510.41;106107;1274;22618;-84
2022/07/19 06:55:25;;;;;;;7.50;1.40;;;;;;;26.36;48.04;99511.48;106090;1274;24182;-86
2022/07/19 06:58:01;;;;;;;6.30;1.50;;;;;;;26.50;47.85;99513.77;106104;1274;24444;-87
2022/07/19 07:00:36;;;;;;;7.60;1.30;;;;;;;26.61;47.77;99509.73;106065;1274;23909;-86
2022/07/19 07:03:17;;;;;;;7.30;1.30;;;;;;;26.72;46.99;99514.46;106467;1274;22557;-87
2022/07/19 07:06:13;;;;;;;;;;;;;;;;;;;;;
2022/07/19 07:08:52;;;;;;;6.30;1.10;;;;;;;26.85;46.52;99509.94;106157;1274;22609;-85
2022/07/19 07:11:50;;;;;;;4.90;1.60;;;;;;;26.96;46.66;99506.23;106243;1273;24254;-90
2022/07/19 07:14:40;;;;;;;6.90;1.30;;;;;;;27.16;46.84;99508.43;106279;1273;23740;-86
2022/07/19 07:17:36;;;;;;;7.30;1.30;;;;;;;27.38;46.39;99509.54;106031;1274;22694;-85
2022/07/19 07:20:20;;;;;;;5.40;1.10;;;;;;;27.57;46.26;99512.05;106249;1274;24238;-86
2022/07/19 07:22:49;;;;;;;4.30;1.00;;;;;;;27.73;46.01;99513.11;106307;1272;24270;-86
2022/07/19 07:25:53;;;;;;;5.50;1.20;;;;;;;27.87;45.77;99512.74;106182;1273;22542;-88
2022/07/19 07:32:04;;;;;;;7.20;1.10;;;;;;;28.13;45.54;99518.55;106406;1273;22535;-86
2022/07/19 07:34:35;;;;;;;4.90;1.10;;;;;;;28.23;45.55;99522.35;106126;1274;22615;-86
2022/07/19 07:37:38;;;;;;;;;;;;;;;;;;;;;
2022/07/19 07:40:49;;;;;;;;;;;;;;;;;;;;;
2022/07/19 07:44:34;;;;;;;;;;;;;;;;;;;;;
2022/07/19 07:47:40;;;;;;;4.60;1.00;;;;;;;28.91;44.48;99515.26;105385;1284;22569;-86
2022/07/19 07:50:35;;;;;;;;;;;;;;;;;;;;;
2022/07/19 07:53:21;;;;;;;6.30;1.20;;;;;;;29.00;44.52;99514.81;105454;1285;24040;-85
2022/07/19 07:55:55;;;;;;;5.30;1.10;;;;;;;29.02;43.42;99512.55;105306;1285;23300;-83
2022/07/19 07:58:41;;;;;;;9.50;1.30;;;;;;;29.00;43.78;99511.89;105518;1285;22569;-88
2022/07/19 08:01:21;;;;;;;6.60;1.00;;;;;;;29.20;43.84;99514.70;105659;1284;24545;-86
2022/07/19 08:04:30;;;;;;;4.80;1.20;;;;;;;29.25;42.90;99511.96;105411;1285;24457;-86
2022/07/19 08:07:48;;;;;;;7.30;1.40;;;;;;;29.23;43.48;99514.00;105399;1284;22514;-87
2022/07/19 08:10:47;;;;;;;7.00;1.60;;;;;;;29.47;43.30;99509.34;104962;1288;24021;-86
2022/07/19 08:14:09;;;;;;;5.40;1.10;;;;;;;29.64;43.16;99506.48;104882;1288;24504;-85
2022/07/19 08:20:51;;;;;;;;;;;;;;;;;;;;;
2022/07/19 08:23:21;;;;;;;4.80;1.30;;;;;;;30.20;42.03;99495.73;104771;1287;22731;-88
2022/07/19 08:25:57;;;;;;;8.20;1.40;;;;;;;30.25;42.36;99494.42;105097;1288;23540;-84
2022/07/19 08:28:40;;;;;;;7.10;1.50;;;;;;;30.29;41.97;99495.52;105117;1287;22544;-85
2022/07/19 08:31:30;;;;;;;;;;;;;;;;;;;;;
2022/07/19 08:35:04;;;;;;;;;;;;;;;;;;;;;
2022/07/19 08:37:53;;;;;;;5.70;1.10;;;;;;;30.13;40.57;99492.96;105301;1284;24197;-89
2022/07/19 08:40:39;;;;;;;;;;;;;;;;;;;;;
2022/07/19 08:43:14;;;;;;;5.10;1.30;;;;;;;29.90;40.06;99491.11;105617;1280;23000;-87
2022/07/19 08:45:43;;;;;;;6.00;1.50;;;;;;;29.87;39.95;99492.07;105602;1279;24189;-88
2022/07/19 08:48:10;;;;;;;4.90;1.20;;;;;;;29.86;39.89;99489.89;105595;1280;22726;-86
2022/07/19 08:50:38;;;;;;;3.70;1.10;;;;;;;30.04;40.56;99488.93;105851;1281;22612;-85
2022/07/19 08:53:04;;;;;;;6.00;1.30;;;;;;;30.30;40.50;99491.64;105872;1279;24297;-85
2022/07/19 08:55:33;;;;;;;6.00;1.50;;;;;;;30.49;40.11;99490.29;105881;1282;22569;-87
2022/07/19 08:58:08;;;;;;;5.20;1.30;;;;;;;30.55;39.93;99486.55;106326;1274;22631;-88
2022/07/19 09:00:37;;;;;;;5.30;1.30;;;;;;;30.76;40.10;99481.69;106284;1274;25371;-86
2022/07/19 09:03:12;;;;;;;6.20;1.50;;;;;;;31.01;40.10;99481.58;106499;1274;22472;-85
2022/07/19 09:05:49;;;;;;;6.90;1.20;;;;;;;31.27;40.21;99485.48;106197;1274;22738;-87
2022/07/19 09:08:19;;;;;;;5.90;1.10;;;;;;;31.52;39.66;99482.89;106295;1274;22595;-87
2022/07/19 09:11:15;;;;;;;6.70;1.70;;;;;;;31.46;38.45;99485.20;106131;1274;25593;-88
2022/07/19 09:13:50;;;;;;;5.80;1.20;;;;;;;31.23;39.00;99487.27;106095;1274;24446;-87
2022/07/19 09:16:16;;;;;;;6.30;1.50;;;;;;;31.16;38.13;99481.23;106126;1274;22608;-86
2022/07/19 09:18:46;;;;;;;4.90;1.20;;;;;;;31.09;38.12;99482.80;106119;1274;22721;-89
2022/07/19 09:21:23;;;;;;;7.50;1.30;;;;;;;31.11;38.44;99481.86;106191;1274;23493;-87
2022/07/19 09:23:57;;;;;;;6.70;1.40;;;;;;;31.37;38.70;99481.65;106096;1274;26955;-87
2022/07/19 09:26:28;;;;;;;6.20;1.30;;;;;;;31.58;38.37;99476.79;106255;1274;24447;-88
2022/07/19 09:29:27;;;;;;;4.40;1.20;;;;;;;31.61;38.17;99478.05;106044;1274;22705;-83
2022/07/19 09:32:17;;;;;;;4.50;1.40;;;;;;;31.54;37.77;99475.27;106327;1274;25380;-86
2022/07/19 09:34:53;;;;;;;8.90;1.40;;;;;;;31.66;38.20;99476.06;106164;1274;25374;-86
2022/07/19 09:37:27;;;;;;;4.50;1.30;;;;;;;31.72;37.33;99480.75;106116;1274;23986;-86
2022/07/19 09:40:03;;;;;;;4.70;1.10;;;;;;;31.68;37.81;99477.21;105901;1273;25433;-86
2022/07/19 09:43:16;;;;;;;6.80;1.40;;;;;;;31.86;37.66;99475.83;106312;1274;25932;-91
2022/07/19 09:45:51;;;;;;;8.00;1.60;;;;;;;32.11;38.20;99477.17;107238;1274;22704;-89
2022/07/19 09:48:43;;;;;;;5.80;1.50;;;;;;;32.25;37.22;99478.95;106259;1274;25313;-90
2022/07/19 09:51:12;;;;;;;6.10;1.20;;;;;;;32.18;36.76;99482.48;106187;1274;22775;-89
2022/07/19 09:53:47;;;;;;;6.30;1.40;;;;;;;32.09;36.74;99476.48;106128;1274;24216;-88
2022/07/19 09:56:31;;;;;;;10.70;1.90;;;;;;;32.02;36.60;99473.44;106194;1274;22705;-87
2022/07/19 09:59:09;;;;;;;14.10;2.40;;;;;;;32.12;36.81;99469.52;106170;1274;26578;-89
2022/07/19 10:01:47;;;;;;;23.40;3.10;;;;;;;32.22;36.31;99470.16;106451;1273;22538;-90
2022/07/19 10:04:24;;;;;;;38.90;5.10;;;;;;;32.20;36.17;99467.23;106465;1274;22719;-90
2022/07/19 10:07:16;;;;;;;;;;;;;;;;;;;;;
2022/07/19 10:09:51;;;;;;;5.80;1.30;;;;;;;32.24;36.21;99465.89;106440;1274;25356;-89
2022/07/19 10:13:25;;;;;;;7.40;1.90;;;;;;;32.41;35.90;99463.48;106430;1274;22697;-91
2022/07/19 10:16:14;;;;;;;9.00;1.80;;;;;;;32.39;35.96;99457.79;106395;1274;22501;-88
2022/07/19 10:19:07;;;;;;;6.20;1.90;;;;;;;32.39;35.57;99450.27;106421;1274;23268;-91
2022/07/19 10:21:36;;;;;;;8.20;1.60;;;;;;;32.45;35.68;99452.30;106339;1274;23352;-88
2022/07/19 10:24:07;;;;;;;9.40;1.60;;;;;;;32.42;35.22;99450.16;106256;1274;24237;-91
2022/07/19 10:26:40;;;;;;;6.20;1.20;;;;;;;32.45;35.61;99448.80;106170;1274;25232;-87
2022/07/19 10:30:40;;;;;;;5.50;1.20;;;;;;;32.59;35.64;99443.80;105654;1280;22545;-89
2022/07/19 10:33:52;;;;;;;;;;;;;;;;;;;;;
2022/07/19 10:36:45;;;;;;;4.40;1.40;;;;;;;32.74;35.33;99440.56;105303;1283;22559;-89
2022/07/19 10:40:05;;;;;;;5.10;1.20;;;;;;;32.84;35.33;99439.27;105264;1286;23085;-87
2022/07/19 10:43:31;;;;;;;6.70;1.30;;;;;;;33.08;35.23;99432.23;105107;1286;22739;-88
2022/07/19 10:54:12;;;;;;;5.80;1.20;;;;;;;33.71;35.26;99425.23;105531;1284;23592;-89
2022/07/19 10:57:49;;;;;;;;;;;;;;;;;;;;;
2022/07/19 11:01:00;;;;;;;;;;;;;;;;;;;;;
2022/07/19 11:03:37;;;;;;;5.30;1.80;;;;;;;32.79;33.57;99419.25;105429;1286;22563;-88
2022/07/19 11:07:09;;;;;;;8.60;1.50;;;;;;;32.67;33.46;99412.27;104985;1285;24228;-90
2022/07/19 11:10:02;;;;;;;9.20;1.70;;;;;;;32.73;34.18;99413.70;105190;1282;22576;-87
2022/07/19 11:12:45;;;;;;;8.90;1.60;;;;;;;33.00;33.99;99406.27;105818;1279;25264;-87
2022/07/19 11:15:31;;;;;;;7.50;1.60;;;;;;;33.19;34.10;99407.20;105546;1281;23314;-88
2022/07/19 11:18:33;;;;;;;7.70;1.30;;;;;;;33.41;33.92;99403.84;105788;1281;24216;-87
2022/07/19 11:24:55;;;;;;;;;;;;;;;;;;;;;
2022/07/19 11:27:47;;;;;;;7.10;1.20;;;;;;;33.43;32.71;99397.22;105102;1285;25535;-89
2022/07/19 11:30:31;;;;;;;4.30;1.20;;;;;;;33.46;33.18;99391.42;105348;1285;24799;-91
2022/07/19 11:33:19;;;;;;;5.70;1.30;;;;;;;33.58;32.79;99392.56;105319;1285;26642;-89
2022/07/19 11:37:01;;;;;;;5.40;1.40;;;;;;;33.39;32.35;99393.46;105293;1285;25254;-89
2022/07/19 11:40:12;;;;;;;;;;;;;;;;;;;;;
2022/07/19 11:43:40;;;;;;;;;;;;;;;;;;;;;
2022/07/19 11:46:53;;;;;;;5.40;1.30;;;;;;;33.52;32.91;99379.23;105156;1288;24938;-93
2022/07/19 11:50:05;;;;;;;;;;;;;;;;;;;;;
2022/07/19 11:54:00;;;;;;;;;;;;;;;;;;;;;
2022/07/19 11:57:38;;;;;;;;;;;;;;;;;;;;;
2022/07/19 12:00:49;;;;;;;4.90;1.10;;;;;;;33.91;31.32;99381.13;103986;1297;25445;-94
2022/07/19 12:04:23;;;;;;;;;;;;;;;;;;;;;
2022/07/19 12:07:06;;;;;;;5.50;1.40;;;;;;;33.83;31.80;99379.09;105316;1297;22569;-92
2022/07/19 12:20:39;;;;;;;4.80;1.30;;;;;;;33.86;30.39;99376.98;106454;1273;22573;-91
2022/07/19 12:23:23;;;;;;;6.50;1.40;;;;;;;33.65;30.41;99373.61;106169;1274;22724;-91
2022/07/19 12:26:18;;;;;;;5.90;1.50;;;;;;;33.48;30.67;99365.65;106481;1273;22541;-92
2022/07/19 12:29:13;;;;;;;9.70;2.00;;;;;;;33.51;30.65;99361.59;107927;1274;25953;-90
2022/07/19 12:32:00;;;;;;;6.20;1.50;;;;;;;33.55;30.41;99358.29;108039;1274;22651;-91
2022/07/19 12:34:28;;;;;;;7.90;1.60;;;;;;;33.62;30.92;99355.74;107641;1274;22633;-90
2022/07/19 12:36:58;;;;;;;5.00;1.40;;;;;;;33.74;30.52;99356.74;106512;1278;24253;-92
2022/07/19 12:39:46;;;;;;;;;;;;;;;;;;;;;
2022/07/19 12:42:37;;;;;;;5.20;1.40;;;;;;;33.71;29.85;99357.65;106799;1276;26492;-88
2022/07/19 12:45:15;;;;;;;6.30;1.50;;;;;;;33.64;29.97;99357.60;106191;1273;24275;-90
2022/07/19 12:47:49;;;;;;;6.20;1.60;;;;;;;33.67;30.40;99350.81;106246;1274;22569;-91
2022/07/19 12:53:48;;;;;;;9.50;1.70;;;;;;;33.88;30.16;99350.11;106197;1274;22570;-89
2022/07/19 12:56:20;;;;;;;11.90;2.10;;;;;;;33.91;30.38;99346.92;106185;1274;26600;-89
2022/07/19 13:04:54;;;;;;;5.80;1.50;;;;;;;33.68;29.64;99337.54;107831;1277;22566;-90
2022/07/19 13:07:40;;;;;;;7.20;1.30;;;;;;;33.81;29.88;99336.14;107238;1277;22602;-93
2022/07/19 13:10:37;;;;;;;8.30;1.70;;;;;;;33.92;29.68;99332.43;107682;1281;22720;-89
2022/07/19 13:13:11;;;;;;;8.00;1.50;;;;;;;33.92;28.99;99335.64;106169;1281;22847;-87
2022/07/19 13:15:53;;;;;;;10.00;1.50;;;;;;;33.79;29.06;99335.99;106081;1278;22968;-90
2022/07/19 13:18:30;;;;;;;10.70;1.60;;;;;;;33.66;29.13;99334.09;105702;1278;25835;-90
2022/07/19 13:21:21;;;;;;;;;;;;;;;;;;;;;
2022/07/19 13:24:37;;;;;;;8.60;2.00;;;;;;;33.79;29.57;99324.64;107427;1281;22583;-92
2022/07/19 13:27:19;;;;;;;8.50;2.20;;;;;;;33.94;29.31;99316.89;107489;1278;22651;-91
2022/07/19 13:29:59;;;;;;;11.60;2.70;;;;;;;34.11;29.47;99315.85;107764;1278;23360;-91
2022/07/19 13:32:41;;;;;;;6.40;1.80;;;;;;;34.23;29.18;99311.48;106271;1284;22720;-90
2022/07/19 13:35:18;;;;;;;6.50;1.90;;;;;;;34.26;29.50;99316.36;105959;1281;22545;-88
2022/07/19 13:38:03;;;;;;;10.00;1.90;;;;;;;34.28;29.25;99309.72;106666;1277;22490;-92
2022/07/19 13:40:44;;;;;;;8.00;1.40;;;;;;;34.27;28.67;99303.79;105985;1277;25485;-88
2022/07/19 13:43:29;;;;;;;;;;;;;;;;;;;;;
2022/07/19 13:46:58;;;;;;;4.60;1.40;;;;;;;34.25;28.97;99303.59;106232;1277;22714;-88
2022/07/19 13:49:53;;;;;;;6.70;1.70;;;;;;;34.32;28.75;99302.19;105720;1284;24346;-88
2022/07/19 13:52:29;;;;;;;3.80;1.40;;;;;;;34.25;28.17;99303.92;105410;1284;25262;-86
2022/07/19 13:55:25;;;;;;;5.70;1.50;;;;;;;34.13;28.32;99303.34;104828;1287;22599;-91
2022/07/19 13:57:58;;;;;;;5.90;1.30;;;;;;;34.16;27.87;99303.05;104781;1287;25269;-89
2022/07/19 14:00:34;;;;;;;4.40;1.40;;;;;;;34.05;27.37;99303.91;104802;1287;25439;-89
2022/07/19 14:03:14;;;;;;;6.20;1.60;;;;;;;33.93;27.71;99300.92;105398;1290;26505;-91
2022/07/19 14:05:49;;;;;;;6.90;1.50;;;;;;;33.98;27.92;99297.48;104729;1290;25259;-88
2022/07/19 14:08:31;;;;;;;6.60;1.50;;;;;;;34.18;28.49;99293.70;105133;1292;24356;-88
2022/07/19 14:11:16;;;;;;;7.60;1.50;;;;;;;34.43;28.40;99295.45;105077;1290;24226;-90
2022/07/19 14:13:52;;;;;;;7.20;1.30;;;;;;;34.53;28.04;99291.36;105437;1289;22691;-92
2022/07/19 14:16:35;;;;;;;6.10;1.50;;;;;;;34.59;27.88;99288.98;104706;1291;22558;-91
2022/07/19 14:19:14;;;;;;;5.60;1.40;;;;;;;34.65;27.84;99287.98;104802;1290;23928;-90
2022/07/19 14:21:40;;;;;;;7.00;1.60;;;;;;;34.53;27.48;99287.09;104630;1291;24531;-88
2022/07/19 14:24:22;;;;;;;5.40;1.40;;;;;;;34.56;27.92;99283.39;104980;1290;25247;-89
2022/07/19 14:27:01;;;;;;;5.30;1.80;;;;;;;34.73;28.08;99281.40;104668;1287;22553;-90
2022/07/19 14:30:26;;;;;;;9.20;2.00;;;;;;;34.83;28.06;99282.72;105122;1286;23174;-89
2022/07/19 14:33:27;;;;;;;8.00;2.30;;;;;;;34.90;27.98;99280.08;105189;1281;23959;-89
2022/07/19 14:36:01;;;;;;;7.50;1.50;;;;;;;35.00;28.38;99279.52;105479;1284;23326;-86
2022/07/19 14:38:44;;;;;;;;;;;;;;;;;;;;;
2022/07/19 14:50:17;;;;;;;;;;;;;;;;;;;;;
2022/07/19 14:53:36;;;;;;;6.80;2.00;;;;;;;34.81;27.02;99275.87;105170;1287;22548;-90
2022/07/19 14:56:32;;;;;;;;;;;;;;;;;;;;;
2022/07/19 14:59:21;;;;;;;8.30;1.90;;;;;;;35.02;26.95;99275.81;105260;1287;25474;-86
2022/07/19 15:02:00;;;;;;;7.70;1.80;;;;;;;35.02;27.14;99277.20;105310;1285;25446;-87
2022/07/19 15:05:04;;;;;;;8.30;1.80;;;;;;;35.12;27.60;99271.41;105190;1287;22587;-88
2022/07/19 15:08:15;;;;;;;4.80;1.80;;;;;;;35.37;28.12;99272.14;105301;1284;22659;-91
2022/07/19 15:11:12;;;;;;;7.00;1.70;;;;;;;35.55;27.60;99268.48;105451;1285;22617;-87
2022/07/19 15:14:25;;;;;;;7.40;1.60;;;;;;;35.60;27.30;99264.53;105264;1287;24442;-89
2022/07/19 15:17:06;;;;;;;7.20;1.70;;;;;;;35.47;27.02;99261.06;105058;1287;22605;-90
2022/07/19 15:19:55;;;;;;;;;;;;;;;;;;;;;
2022/07/19 15:39:27;;;;;;;8.00;2.00;;;;;;;35.74;27.14;99250.42;104817;1287;22730;-88
2022/07/19 15:46:29;;;;;;;6.50;1.80;;;;;;;35.84;27.28;99247.71;105616;1284;22605;-90
2022/07/19 15:50:48;;;;;;;;;;;;;;;;;;;;;
2022/07/19 16:02:37;;;;;;;7.50;1.70;;;;;;;36.83;25.77;99238.71;105132;1285;25284;-87
2022/07/19 16:05:55;;;;;;;9.70;2.30;;;;;;;36.95;26.33;99237.23;105478;1285;22602;-88
2022/07/19 16:12:56;;;;;;;9.70;1.80;;;;;;;36.69;25.87;99236.37;104852;1291;23245;-88
2022/07/19 16:16:05;;;;;;;8.80;1.70;;;;;;;35.96;26.38;99238.38;105781;1277;22550;-89
2022/07/19 16:19:28;;;;;;;7.60;1.90;;;;;;;35.49;26.47;99240.56;105800;1276;22870;-89
2022/07/19 16:22:15;;;;;;;6.00;1.70;;;;;;;35.07;26.99;99236.40;105371;1284;22812;-87
2022/07/19 16:25:00;;;;;;;7.30;1.90;;;;;;;34.62;26.70;99231.81;105200;1284;22580;-88
2022/07/19 16:33:17;;;;;;;6.50;2.20;;;;;;;33.98;26.54;99230.94;106326;1275;24798;-89
2022/07/19 16:41:04;;;;;;;8.60;1.90;;;;;;;33.93;26.91;99231.26;104442;1277;25639;-88
2022/07/19 16:47:56;;;;;;;13.20;2.70;;;;;;;33.58;27.11;99228.80;106280;1284;22683;-88
2022/07/19 16:50:45;;;;;;;7.10;2.10;;;;;;;33.41;26.88;99233.38;105288;1284;25492;-88
2022/07/19 16:53:35;;;;;;;8.30;2.00;;;;;;;33.32;27.24;99233.34;105570;1285;22618;-86
2022/07/19 16:56:17;;;;;;;6.00;1.90;;;;;;;33.27;27.44;99229.49;105620;1284;22571;-88
2022/07/19 16:59:12;;;;;;;7.60;2.20;;;;;;;33.11;27.24;99229.02;105473;1284;23942;-88
2022/07/19 17:02:03;;;;;;;7.80;1.80;;;;;;;32.91;27.79;99230.74;105708;1284;22675;-85
2022/07/19 17:04:51;;;;;;;;;;;;;;;;;;;;;
2022/07/19 17:08:19;;;;;;;10.30;2.10;;;;;;;32.42;27.33;99230.95;105700;1284;23233;-86
2022/07/19 17:10:51;;;;;;;7.10;1.60;;;;;;;32.25;27.44;99228.21;105681;1284;24385;-88
2022/07/19 17:13:43;;;;;;;7.70;1.90;;;;;;;32.15;27.84;99227.17;105849;1284;22548;-89
2022/07/19 17:16:09;;;;;;;8.80;2.20;;;;;;;32.10;28.47;99227.14;105557;1284;24591;-88